Time;durP1;ratioP1;P1;durP2;ratioP2;P2;SDS_P1;SDS_P2;PMS_P1;PMS_P2;Temp;Humidity;BMP_temperature;BMP_pressure;BME280_temperature;BME280_humidity;BME280_pressure;Samples;Min_cycle;Max_cycle;Signal;HPM_P1;HPM_P2
2022/12/28 00:00:00;;;;;;;15.67;5.37;;;;;;;1.82;100.00;97124.84;5038322;28;20231;-72
2022/12/28 00:02:28;;;;;;;12.43;4.83;;;;;;;1.91;100.00;97124.25;5037955;28;20209;-72
2022/12/28 00:04:54;;;;;;;9.77;4.87;;;;;;;1.79;100.00;97122.44;5037361;28;20205;-72
2022/12/28 00:07:21;;;;;;;9.87;4.70;;;;;;;1.79;100.00;97117.25;5038436;28;20212;-72
2022/12/28 00:09:47;;;;;;;9.83;4.77;;;;;;;1.74;100.00;97111.53;5037963;28;20227;-71
2022/12/28 00:12:13;;;;;;;8.47;4.83;;;;;;;1.70;100.00;97110.06;5037783;28;20211;-72
2022/12/28 00:14:40;;;;;;;9.30;4.53;;;;;;;1.71;100.00;97116.94;5035850;28;20209;-72
2022/12/28 00:17:06;;;;;;;9.40;4.30;;;;;;;1.71;100.00;97123.91;5035676;28;20881;-72
2022/12/28 00:19:34;;;;;;;7.50;4.03;;;;;;;1.79;100.00;97119.84;5037460;28;20222;-71
2022/12/28 00:22:01;;;;;;;11.13;4.03;;;;;;;1.79;100.00;97122.44;5037895;28;20199;-72
2022/12/28 00:24:27;;;;;;;13.07;4.30;;;;;;;1.81;100.00;97118.00;5037130;28;20211;-72
2022/12/28 00:26:55;;;;;;;9.93;5.27;;;;;;;1.87;100.00;97115.81;5037560;28;20587;-72
2022/12/28 00:29:22;;;;;;;8.33;4.30;;;;;;;1.92;100.00;97126.72;5037741;28;20226;-71
2022/12/28 00:31:48;;;;;;;11.57;4.67;;;;;;;1.91;100.00;97116.44;5037822;28;20206;-71
2022/12/28 00:34:15;;;;;;;9.73;3.70;;;;;;;1.94;100.00;97118.81;5037090;28;20320;-72
2022/12/28 00:36:43;;;;;;;9.27;4.50;;;;;;;1.98;100.00;97113.31;5037710;28;20209;-73
2022/12/28 00:39:09;;;;;;;9.67;4.00;;;;;;;1.96;100.00;97114.34;5038132;28;20228;-72
2022/12/28 00:41:36;;;;;;;9.83;4.50;;;;;;;2.04;100.00;97114.66;5037217;28;20564;-71
2022/12/28 00:44:02;;;;;;;8.53;4.50;;;;;;;2.06;100.00;97115.38;5036764;28;20197;-72
2022/12/28 00:46:29;;;;;;;7.50;4.13;;;;;;;2.06;100.00;97103.25;5038153;28;20205;-71
2022/12/28 00:48:55;;;;;;;9.67;4.27;;;;;;;2.01;100.00;97101.88;5038084;28;20225;-72
2022/12/28 00:51:21;;;;;;;8.93;4.23;;;;;;;2.07;100.00;97093.66;5037186;28;20207;-69
2022/12/28 00:53:49;;;;;;;9.10;4.70;;;;;;;2.13;100.00;97095.84;5036823;28;20230;-71
2022/12/28 00:56:18;;;;;;;6.73;3.93;;;;;;;2.13;100.00;97093.25;5037583;28;20225;-69
2022/12/28 00:58:45;;;;;;;11.57;5.00;;;;;;;2.17;100.00;97079.91;5037399;28;20228;-72
2022/12/28 01:01:13;;;;;;;11.10;4.83;;;;;;;2.23;100.00;97081.25;5037492;28;20204;-70
2022/12/28 01:03:40;;;;;;;9.23;4.93;;;;;;;2.19;100.00;97078.06;5036424;28;20205;-72
2022/12/28 01:06:09;;;;;;;11.90;4.00;;;;;;;2.24;100.00;97075.13;5037206;28;20212;-72
2022/12/28 01:08:36;;;;;;;8.70;4.50;;;;;;;2.25;100.00;97076.78;5036472;28;20755;-72
2022/12/28 01:11:08;;;;;;;7.70;4.73;;;;;;;2.36;100.00;97069.09;5037068;28;20353;-72
2022/12/28 01:13:34;;;;;;;8.67;4.73;;;;;;;2.23;100.00;97073.44;5036523;28;20332;-69
2022/12/28 01:16:01;;;;;;;8.77;4.27;;;;;;;2.25;100.00;97076.78;5036682;28;20204;-71
2022/12/28 01:18:27;;;;;;;8.37;4.53;;;;;;;2.25;100.00;97075.00;5037402;28;20546;-70
2022/12/28 01:20:54;;;;;;;12.37;4.80;;;;;;;2.25;100.00;97071.59;5036878;28;20577;-70
2022/12/28 01:23:20;;;;;;;7.60;4.10;;;;;;;2.30;100.00;97075.53;5036483;28;20971;-72
2022/12/28 01:25:46;;;;;;;9.97;4.90;;;;;;;2.24;100.00;97075.97;5036170;28;20212;-70
2022/12/28 01:28:14;;;;;;;10.67;5.37;;;;;;;2.37;100.00;97070.72;5036809;28;20219;-71
2022/12/28 01:30:41;;;;;;;9.43;4.57;;;;;;;2.33;100.00;97070.13;5036969;28;20228;-70
2022/12/28 01:33:07;;;;;;;8.77;4.73;;;;;;;2.43;100.00;97071.13;5036848;28;20227;-70
2022/12/28 01:35:34;;;;;;;11.10;5.33;;;;;;;2.32;100.00;97073.66;5036422;28;20204;-71
2022/12/28 01:38:00;;;;;;;10.47;5.73;;;;;;;2.38;100.00;97065.44;5036398;28;20220;-71
2022/12/28 01:40:26;;;;;;;11.10;5.90;;;;;;;2.40;100.00;97063.53;5036980;28;20235;-71
2022/12/28 01:42:53;;;;;;;11.13;5.00;;;;;;;2.38;100.00;97056.78;5037120;28;20214;-72
2022/12/28 01:45:22;;;;;;;15.00;6.67;;;;;;;2.43;100.00;97051.16;5035713;28;20204;-72
2022/12/28 01:47:51;;;;;;;15.07;6.03;;;;;;;2.48;100.00;97050.81;5036207;28;20199;-72
2022/12/28 01:50:22;;;;;;;16.60;6.37;;;;;;;2.52;100.00;97037.50;5036484;28;20227;-72
2022/12/28 01:52:53;;;;;;;13.10;5.77;;;;;;;2.56;100.00;97045.94;5036675;28;20212;-72
2022/12/28 01:55:21;;;;;;;13.20;6.10;;;;;;;2.60;100.00;97037.78;5035381;28;20215;-73
2022/12/28 01:57:52;;;;;;;11.57;5.70;;;;;;;2.70;100.00;97044.00;5036340;28;20208;-72
2022/12/28 02:00:21;;;;;;;9.70;4.67;;;;;;;2.58;100.00;97034.47;5037177;28;20224;-71
2022/12/28 02:02:52;;;;;;;10.67;5.03;;;;;;;2.58;100.00;97026.69;5035679;28;20204;-72
2022/12/28 02:05:22;;;;;;;11.90;5.47;;;;;;;2.57;100.00;97026.75;5034794;28;20320;-72
2022/12/28 02:07:54;;;;;;;11.53;5.30;;;;;;;2.62;100.00;97025.50;5036945;28;20204;-71
2022/12/28 02:10:21;;;;;;;12.03;4.87;;;;;;;2.62;100.00;97025.50;5036472;28;20233;-71
2022/12/28 02:12:48;;;;;;;13.13;5.53;;;;;;;2.62;100.00;97022.06;5035820;28;20208;-72
2022/12/28 02:15:14;;;;;;;11.10;5.53;;;;;;;2.67;100.00;97014.75;5035414;28;20211;-73
2022/12/28 02:17:42;;;;;;;13.20;5.70;;;;;;;2.72;100.00;97013.47;5036694;28;20219;-71
2022/12/28 02:20:10;;;;;;;10.97;5.23;;;;;;;2.70;100.00;97017.97;5035838;28;20228;-72
2022/12/28 02:23:05;;;;;;;12.07;5.37;;;;;;;2.85;100.00;97008.22;5036058;28;20212;-72
2022/12/28 02:26:07;;;;;;;12.37;6.00;;;;;;;2.92;100.00;97006.84;5034968;28;20224;-71
2022/12/28 02:28:53;;;;;;;15.43;5.47;;;;;;;2.90;100.00;97004.31;5036400;28;20219;-70
2022/12/28 02:31:28;;;;;;;14.23;5.63;;;;;;;2.87;100.00;96988.94;5036229;28;20212;-69
2022/12/28 02:34:05;;;;;;;15.77;6.10;;;;;;;2.78;100.00;96988.81;5035071;28;20224;-71
2022/12/28 02:36:36;;;;;;;10.97;6.17;;;;;;;2.85;100.00;96984.78;5036112;28;20744;-71
2022/12/28 02:39:08;;;;;;;14.43;6.03;;;;;;;2.83;100.00;96976.28;5038603;28;20228;-70
2022/12/28 02:41:36;;;;;;;13.53;5.17;;;;;;;2.64;100.00;96966.38;5039936;28;20205;-71
2022/12/28 02:44:04;;;;;;;11.83;5.63;;;;;;;2.81;100.00;96962.53;5039527;28;20577;-71
2022/12/28 02:52:14;;;;;;;13.53;5.57;;;;;;;2.81;100.00;96950.34;5040073;28;20214;-70
2022/12/28 02:58:22;;;;;;;8.73;5.03;;;;;;;2.84;100.00;96933.69;5039607;28;20258;-69
2022/12/28 03:01:00;;;;;;;10.47;5.23;;;;;;;2.77;100.00;96935.91;5040329;28;20208;-70
2022/12/28 03:03:34;;;;;;;10.70;4.73;;;;;;;2.84;100.00;96923.28;5040069;28;20200;-69
2022/12/28 03:09:07;;;;;;;11.90;5.73;;;;;;;2.81;100.00;96929.53;5039848;28;20228;-70
2022/12/28 03:11:39;;;;;;;8.17;4.77;;;;;;;2.77;100.00;96928.09;5039891;28;20207;-70
2022/12/28 03:14:08;;;;;;;10.23;4.93;;;;;;;2.79;100.00;96928.84;5039128;28;20235;-71
2022/12/28 03:33:11;;;;;;;9.30;4.47;;;;;;;2.97;100.00;96917.06;5039445;28;20247;-69
2022/12/28 03:35:43;;;;;;;10.03;4.70;;;;;;;2.97;100.00;96906.63;5038815;28;20205;-70
2022/12/28 03:38:14;;;;;;;11.40;5.27;;;;;;;3.00;100.00;96895.97;5039196;28;20591;-69
2022/12/28 03:40:48;;;;;;;10.40;4.97;;;;;;;2.96;100.00;96901.56;5039068;28;20228;-70
2022/12/28 03:46:09;;;;;;;8.97;4.33;;;;;;;2.86;100.00;96909.19;5038624;28;20219;-72
2022/12/28 03:48:38;;;;;;;13.73;5.40;;;;;;;2.98;100.00;96904.84;5038586;28;20678;-72
2022/12/28 03:51:04;;;;;;;10.37;5.50;;;;;;;3.00;100.00;96905.59;5037864;28;20206;-72
2022/12/28 03:53:39;;;;;;;10.80;5.70;;;;;;;3.02;100.00;96901.91;5038247;28;20234;-71
2022/12/28 03:56:11;;;;;;;12.23;5.80;;;;;;;3.11;100.00;96896.00;5039233;28;20206;-73
2022/12/28 03:58:38;;;;;;;10.43;4.60;;;;;;;2.95;100.00;96886.88;5039441;28;20211;-71
2022/12/28 04:01:05;;;;;;;11.53;4.87;;;;;;;2.90;100.00;96905.41;5036900;28;20205;-71
2022/12/28 04:03:32;;;;;;;12.33;5.50;;;;;;;2.99;100.00;96903.91;5037933;28;20201;-71
2022/12/28 04:06:01;;;;;;;9.93;4.63;;;;;;;3.11;100.00;96898.63;5038222;28;20208;-72
2022/12/28 04:08:27;;;;;;;14.70;5.90;;;;;;;3.06;100.00;96898.13;5038490;28;20209;-72
2022/12/28 04:10:54;;;;;;;8.77;5.13;;;;;;;3.08;100.00;96883.22;5037453;28;20560;-72
2022/12/28 04:13:21;;;;;;;11.00;5.30;;;;;;;2.96;100.00;96883.34;5038401;28;20205;-72
2022/12/28 04:15:56;;;;;;;14.07;5.70;;;;;;;3.10;100.00;96882.16;5037538;28;20201;-72
2022/12/28 04:18:23;;;;;;;15.70;6.10;;;;;;;2.95;100.00;96884.28;5037761;28;20282;-71
2022/12/28 04:20:50;;;;;;;10.67;5.17;;;;;;;2.95;100.00;96882.47;5038582;28;20202;-71
2022/12/28 04:23:17;;;;;;;14.37;4.90;;;;;;;3.07;100.00;96871.16;5038766;28;20216;-71
2022/12/28 04:25:44;;;;;;;9.27;5.13;;;;;;;3.01;100.00;96867.22;5036931;28;20211;-71
2022/12/28 04:28:11;;;;;;;14.67;5.90;;;;;;;3.04;100.00;96868.78;5037661;28;20223;-72
2022/12/28 04:30:37;;;;;;;10.50;5.33;;;;;;;3.14;100.00;96867.97;5038647;28;20220;-72
2022/12/28 04:33:03;;;;;;;9.93;5.10;;;;;;;3.19;100.00;96862.41;5037796;28;20204;-72
2022/12/28 04:35:32;;;;;;;13.73;4.73;;;;;;;3.28;100.00;96861.69;5036975;28;20402;-71
2022/12/28 04:37:58;;;;;;;13.20;5.83;;;;;;;3.22;100.00;96855.19;5038236;28;20216;-72
2022/12/28 04:40:26;;;;;;;10.20;5.60;;;;;;;3.29;100.00;96852.94;5037933;28;20243;-72
2022/12/28 04:42:52;;;;;;;14.53;6.07;;;;;;;3.19;100.00;96858.00;5038047;28;20203;-71
2022/12/28 04:45:19;;;;;;;8.57;4.43;;;;;;;3.26;100.00;96848.81;5037125;28;21116;-71
2022/12/28 04:47:45;;;;;;;9.50;5.17;;;;;;;3.27;100.00;96850.47;5037812;28;20207;-71
2022/12/28 04:50:12;;;;;;;11.43;5.03;;;;;;;3.30;100.00;96833.78;5037155;28;20229;-73
2022/12/28 04:52:38;;;;;;;11.67;5.30;;;;;;;3.25;100.00;96833.31;5037737;28;21030;-71
2022/12/28 04:55:05;;;;;;;9.80;5.10;;;;;;;3.24;100.00;96837.66;5036450;28;20769;-71
2022/12/28 04:57:33;;;;;;;9.23;4.63;;;;;;;3.35;100.00;96835.06;5036635;28;20209;-71
2022/12/28 04:59:59;;;;;;;10.37;4.53;;;;;;;3.22;100.00;96849.13;5037665;28;20223;-71
2022/12/28 05:02:26;;;;;;;9.50;4.83;;;;;;;3.19;100.00;96844.19;5037218;28;20216;-71
2022/12/28 05:04:52;;;;;;;8.60;4.40;;;;;;;3.29;100.00;96839.94;5036617;28;20201;-71
2022/12/28 05:07:19;;;;;;;9.17;5.03;;;;;;;3.28;100.00;96856.50;5037419;28;20212;-70
2022/12/28 05:09:45;;;;;;;8.43;4.60;;;;;;;3.27;100.00;96858.28;5037239;28;20229;-69
2022/12/28 05:12:11;;;;;;;14.67;5.27;;;;;;;3.31;100.00;96845.81;5037184;28;20208;-71
2022/12/28 05:14:41;;;;;;;14.07;4.87;;;;;;;3.34;100.00;96832.59;5036536;28;20220;-71
2022/12/28 05:17:07;;;;;;;9.00;4.00;;;;;;;3.25;100.00;96828.09;5037024;28;20219;-72
2022/12/28 05:19:34;;;;;;;17.17;6.57;;;;;;;3.30;100.00;96831.16;5036301;28;20243;-71
2022/12/28 05:22:00;;;;;;;27.07;9.30;;;;;;;3.24;100.00;96835.06;5037194;28;20211;-71
2022/12/28 05:24:27;;;;;;;18.40;7.50;;;;;;;3.20;100.00;96835.44;5036209;28;20208;-71
2022/12/28 05:26:53;;;;;;;10.30;4.90;;;;;;;3.24;100.00;96834.25;5036641;28;20200;-71
2022/12/28 05:29:20;;;;;;;8.90;4.30;;;;;;;3.18;100.00;96832.09;5036617;28;20736;-71
2022/12/28 05:31:47;;;;;;;9.03;4.03;;;;;;;3.19;100.00;96828.56;5037320;28;20676;-71
2022/12/28 05:34:14;;;;;;;9.37;4.47;;;;;;;3.23;100.00;96819.56;5036198;28;21527;-69
2022/12/28 05:36:40;;;;;;;8.33;4.23;;;;;;;3.03;100.00;96828.09;5036718;28;20200;-71
2022/12/28 05:39:07;;;;;;;7.60;4.47;;;;;;;3.22;100.00;96823.94;5036244;28;21009;-69
2022/12/28 05:41:33;;;;;;;12.13;4.90;;;;;;;3.23;100.00;96815.19;5036970;28;20211;-68
2022/12/28 05:44:00;;;;;;;9.23;4.60;;;;;;;3.27;100.00;96815.75;5035665;28;20201;-70
2022/12/28 05:46:28;;;;;;;13.70;5.13;;;;;;;3.18;100.00;96811.28;5036298;28;20937;-70
2022/12/28 05:48:56;;;;;;;11.27;6.23;;;;;;;3.26;100.00;96814.09;5036406;28;20224;-70
2022/12/28 05:51:25;;;;;;;8.80;4.93;;;;;;;3.37;100.00;96812.31;5036701;28;21144;-70
2022/12/28 05:53:51;;;;;;;11.13;5.13;;;;;;;3.38;100.00;96813.16;5036196;28;20205;-70
2022/12/28 05:56:20;;;;;;;7.57;4.27;;;;;;;3.31;100.00;96817.19;5036430;28;20216;-70
2022/12/28 05:58:52;;;;;;;6.70;3.97;;;;;;;3.35;100.00;96811.63;5036480;28;20235;-70
2022/12/28 06:01:21;;;;;;;7.63;3.87;;;;;;;3.43;100.00;96814.44;5036874;28;20223;-70
2022/12/28 06:03:51;;;;;;;8.87;4.97;;;;;;;3.37;100.00;96801.91;5034009;28;20212;-70
2022/12/28 06:06:20;;;;;;;9.97;4.37;;;;;;;3.45;100.00;96809.13;5037808;28;20216;-70
2022/12/28 06:08:48;;;;;;;9.57;4.40;;;;;;;3.47;100.00;96810.66;5037375;28;20239;-69
2022/12/28 06:11:16;;;;;;;8.20;3.87;;;;;;;3.45;100.00;96809.13;5038306;28;20234;-69
2022/12/28 06:13:43;;;;;;;6.60;3.70;;;;;;;3.49;100.00;96810.53;5038130;28;20204;-70
2022/12/28 06:16:12;;;;;;;7.67;3.47;;;;;;;3.54;100.00;96808.41;5037490;28;20228;-71
2022/12/28 06:18:39;;;;;;;7.77;3.80;;;;;;;3.52;100.00;96805.91;5036402;28;20219;-71
2022/12/28 06:21:07;;;;;;;9.43;4.40;;;;;;;3.59;100.00;96808.88;5037386;28;20216;-70
2022/12/28 06:23:36;;;;;;;7.53;4.17;;;;;;;3.69;100.00;96808.84;5038982;28;20216;-70
2022/12/28 06:26:04;;;;;;;6.43;3.27;;;;;;;3.66;100.00;96808.25;5039622;28;20659;-68
2022/12/28 06:28:31;;;;;;;8.67;4.07;;;;;;;3.74;100.00;96808.47;5039390;28;20665;-71
2022/12/28 06:31:02;;;;;;;8.23;4.30;;;;;;;3.87;100.00;96804.78;5039125;28;20204;-71
2022/12/28 06:33:29;;;;;;;8.37;4.13;;;;;;;3.81;100.00;96810.47;5039311;28;20233;-70
2022/12/28 06:35:55;;;;;;;10.97;4.60;;;;;;;3.85;100.00;96798.03;5038894;28;20236;-70
2022/12/28 06:38:22;;;;;;;7.80;4.13;;;;;;;3.91;100.00;96806.19;5039769;28;20213;-70
2022/12/28 06:40:50;;;;;;;8.07;3.73;;;;;;;4.02;100.00;96800.09;5039647;28;20231;-70
2022/12/28 06:43:16;;;;;;;8.57;4.07;;;;;;;3.85;100.00;96801.47;5040729;28;20212;-70
2022/12/28 06:45:42;;;;;;;7.73;4.13;;;;;;;3.96;100.00;96809.25;5039527;28;20197;-71
2022/12/28 06:48:09;;;;;;;8.93;4.53;;;;;;;3.95;100.00;96805.00;5041139;28;20216;-70
2022/12/28 06:50:35;;;;;;;13.00;4.17;;;;;;;3.96;100.00;96811.03;5044239;28;20443;-69
2022/12/28 06:53:02;;;;;;;6.17;3.73;;;;;;;4.05;100.00;96803.31;5043614;28;20572;-69
2022/12/28 06:55:28;;;;;;;9.07;4.53;;;;;;;4.02;100.00;96800.94;5041835;28;20221;-69
2022/12/28 06:57:56;;;;;;;7.90;4.33;;;;;;;4.12;100.00;96799.22;5043917;28;20205;-69
2022/12/28 07:00:23;;;;;;;8.80;3.93;;;;;;;4.08;100.00;96800.44;5043632;28;20228;-69
2022/12/28 07:02:49;;;;;;;4.40;2.90;;;;;;;4.12;100.00;96786.19;5044197;28;20205;-69
2022/12/28 07:05:15;;;;;;;8.77;4.17;;;;;;;4.13;100.00;96793.06;5039683;28;20214;-69
2022/12/28 07:07:45;;;;;;;7.67;4.10;;;;;;;4.16;100.00;96787.59;5039565;28;20197;-69
2022/12/28 07:10:11;;;;;;;6.83;3.80;;;;;;;4.09;100.00;96789.06;5039210;28;20740;-68
2022/12/28 07:12:37;;;;;;;7.10;3.30;;;;;;;4.17;100.00;96783.22;5039141;28;20209;-69
2022/12/28 07:15:07;;;;;;;8.13;4.33;;;;;;;4.23;100.00;96783.53;5038298;28;20232;-69
2022/12/28 07:17:33;;;;;;;5.03;2.90;;;;;;;4.17;100.00;96785.84;5039714;28;20206;-70
2022/12/28 07:20:00;;;;;;;8.07;4.57;;;;;;;4.29;100.00;96773.44;5038853;28;20224;-69
2022/12/28 07:22:26;;;;;;;8.37;2.93;;;;;;;4.11;100.00;96779.34;5039069;28;20595;-68
2022/12/28 07:24:53;;;;;;;8.07;4.63;;;;;;;4.31;100.00;96773.31;5037745;28;20196;-70
2022/12/28 07:27:19;;;;;;;7.30;3.73;;;;;;;4.34;100.00;96765.22;5039555;28;20208;-68
2022/12/28 07:29:46;;;;;;;8.77;4.40;;;;;;;4.43;100.00;96769.66;5038539;28;20221;-70
2022/12/28 07:32:13;;;;;;;8.00;4.30;;;;;;;4.41;100.00;96771.59;5038736;28;20216;-70
2022/12/28 07:34:40;;;;;;;7.30;3.97;;;;;;;4.34;100.00;96792.16;5038437;28;20232;-70
2022/12/28 07:37:06;;;;;;;6.73;2.97;;;;;;;4.33;100.00;96787.06;5039175;28;20816;-68
2022/12/28 07:39:34;;;;;;;6.93;2.93;;;;;;;4.34;100.00;96788.69;5038172;28;20220;-68
2022/12/28 07:42:05;;;;;;;9.97;3.93;;;;;;;4.40;100.00;96785.59;5038339;28;20201;-68
2022/12/28 07:44:31;;;;;;;6.67;3.63;;;;;;;4.42;100.00;96786.31;5038166;28;20321;-69
2022/12/28 07:46:58;;;;;;;12.20;3.80;;;;;;;4.35;100.00;96788.59;5038534;28;20205;-69
2022/12/28 07:49:25;;;;;;;5.33;3.17;;;;;;;4.43;100.00;96782.72;5037374;28;20232;-69
2022/12/28 07:51:52;;;;;;;7.57;3.90;;;;;;;4.46;100.00;96779.88;5037801;28;20580;-68
2022/12/28 07:54:18;;;;;;;5.63;3.47;;;;;;;4.52;100.00;96776.75;5038119;28;20736;-70
2022/12/28 07:56:45;;;;;;;6.63;3.50;;;;;;;4.53;100.00;96770.56;5037703;28;20224;-69
2022/12/28 07:59:12;;;;;;;7.13;3.93;;;;;;;4.56;100.00;96767.72;5037203;28;20312;-68
2022/12/28 08:01:39;;;;;;;6.83;3.47;;;;;;;4.68;100.00;96774.53;5038987;28;20292;-69
2022/12/28 08:04:07;;;;;;;6.33;3.43;;;;;;;4.69;100.00;96769.16;5037440;28;20232;-71
2022/12/28 08:06:37;;;;;;;6.60;3.07;;;;;;;4.74;100.00;96768.78;5037914;28;20197;-72
2022/12/28 08:09:05;;;;;;;6.80;3.73;;;;;;;4.75;100.00;96771.28;5038984;28;20224;-70
2022/12/28 08:11:33;;;;;;;9.07;3.93;;;;;;;4.79;100.00;96766.63;5038815;28;20206;-70
2022/12/28 08:14:00;;;;;;;7.77;3.83;;;;;;;4.85;100.00;96770.34;5037160;28;20201;-73
2022/12/28 08:16:29;;;;;;;6.53;3.33;;;;;;;5.00;100.00;96763.00;5037846;28;20747;-72
2022/12/28 08:18:56;;;;;;;5.97;3.73;;;;;;;4.92;100.00;96763.66;5038423;28;21207;-72
2022/12/28 08:21:24;;;;;;;9.40;4.00;;;;;;;4.98;100.00;96754.50;5037871;28;20201;-72
2022/12/28 08:23:52;;;;;;;8.13;3.77;;;;;;;5.03;100.00;96763.56;5036845;28;20208;-73
2022/12/28 08:26:20;;;;;;;7.63;3.33;;;;;;;5.05;100.00;96759.06;5037865;28;20224;-72
2022/12/28 08:28:49;;;;;;;5.80;3.23;;;;;;;5.16;100.00;96748.50;5037709;28;20734;-72
2022/12/28 08:31:17;;;;;;;7.97;3.80;;;;;;;5.10;100.00;96749.03;5037643;28;20205;-71
2022/12/28 08:33:43;;;;;;;5.97;3.07;;;;;;;5.07;100.00;96745.88;5037219;28;20201;-72
2022/12/28 08:36:10;;;;;;;7.13;3.03;;;;;;;5.23;100.00;96746.19;5036897;28;20225;-72
2022/12/28 08:38:38;;;;;;;5.93;3.60;;;;;;;5.39;100.00;96747.34;5037609;28;20705;-72
2022/12/28 08:41:08;;;;;;;6.60;3.00;;;;;;;5.44;100.00;96745.16;5037800;28;20205;-72
2022/12/28 08:43:34;;;;;;;4.20;2.67;;;;;;;5.24;100.00;96750.47;5036682;28;20565;-72
2022/12/28 08:46:03;;;;;;;8.07;3.60;;;;;;;5.46;100.00;96748.47;5035327;28;20570;-73
2022/12/28 08:48:29;;;;;;;5.93;2.70;;;;;;;5.41;100.00;96748.06;5035150;28;20212;-72
2022/12/28 08:51:01;;;;;;;7.77;3.47;;;;;;;5.61;100.00;96749.72;5035266;28;20201;-72
2022/12/28 08:53:28;;;;;;;4.23;2.43;;;;;;;5.55;100.00;96745.06;5034624;28;20216;-72
2022/12/28 08:55:54;;;;;;;4.67;2.70;;;;;;;5.60;100.00;96743.69;5034516;28;20228;-72
2022/12/28 08:58:22;;;;;;;5.03;2.07;;;;;;;5.71;100.00;96738.31;5035741;28;20227;-73
2022/12/28 09:00:49;;;;;;;3.40;2.10;;;;;;;5.66;100.00;96739.69;5035018;28;20666;-72
2022/12/28 09:03:15;;;;;;;3.87;2.10;;;;;;;5.75;100.00;96733.66;5035589;28;20213;-73
2022/12/28 09:05:41;;;;;;;5.37;2.30;;;;;;;5.89;100.00;96741.13;5035999;28;20208;-73
2022/12/28 09:08:08;;;;;;;3.43;2.07;;;;;;;5.99;100.00;96737.56;5036627;28;20571;-73
2022/12/28 09:10:34;;;;;;;5.70;2.30;;;;;;;5.96;100.00;96744.84;5036412;28;20423;-71
2022/12/28 09:13:01;;;;;;;4.00;2.13;;;;;;;6.06;100.00;96736.88;5037414;28;20198;-72
2022/12/28 09:15:28;;;;;;;3.33;1.77;;;;;;;6.17;100.00;96734.13;5036147;28;20237;-72
2022/12/28 09:17:55;;;;;;;3.77;2.23;;;;;;;6.19;100.00;96734.81;5036010;28;20209;-72
2022/12/28 09:20:21;;;;;;;6.97;2.47;;;;;;;6.07;100.00;96724.63;5036864;28;20660;-72
2022/12/28 09:22:48;;;;;;;4.73;2.33;;;;;;;6.15;100.00;96728.22;5037281;28;20605;-72
2022/12/28 09:25:14;;;;;;;4.23;2.03;;;;;;;6.26;100.00;96724.59;5035185;28;20208;-73
2022/12/28 09:27:41;;;;;;;3.07;1.90;;;;;;;6.17;100.00;96723.69;5036445;28;20204;-72
2022/12/28 09:30:08;;;;;;;7.50;1.97;;;;;;;6.18;100.00;96727.91;5036603;28;20235;-73
2022/12/28 09:32:36;;;;;;;3.20;1.70;;;;;;;6.29;100.00;96725.16;5036245;28;20201;-73
2022/12/28 09:35:03;;;;;;;3.10;1.93;;;;;;;6.19;100.00;96719.13;5035506;28;20384;-73
2022/12/28 09:37:29;;;;;;;4.60;2.87;;;;;;;6.26;100.00;96717.59;5036392;28;20384;-72
2022/12/28 09:39:56;;;;;;;6.20;2.30;;;;;;;6.29;100.00;96719.13;5035726;28;20658;-72
2022/12/28 09:42:27;;;;;;;6.73;2.70;;;;;;;6.46;100.00;96721.03;5035987;28;20616;-73
2022/12/28 09:44:59;;;;;;;2.97;1.97;;;;;;;6.40;100.00;96722.41;5035200;28;20215;-73
2022/12/28 09:47:33;;;;;;;3.07;2.00;;;;;;;6.52;100.00;96723.06;5036298;28;20339;-73
2022/12/28 09:50:27;;;;;;;4.53;1.70;;;;;;;6.67;100.00;96725.13;5036108;28;20258;-73
2022/12/28 09:53:03;;;;;;;9.97;3.63;;;;;;;6.62;100.00;96716.84;5036446;28;20734;-73
2022/12/28 09:55:31;;;;;;;4.30;2.57;;;;;;;6.66;100.00;96712.97;5034804;28;20224;-70
2022/12/28 09:57:59;;;;;;;2.27;1.70;;;;;;;6.70;100.00;96719.59;5035911;28;20220;-70
2022/12/28 10:00:30;;;;;;;6.53;1.97;;;;;;;6.76;100.00;96706.75;5035901;28;20772;-71
2022/12/28 10:03:01;;;;;;;6.13;2.80;;;;;;;6.87;100.00;96706.59;5035982;28;20211;-74
2022/12/28 10:05:30;;;;;;;2.07;1.63;;;;;;;6.91;100.00;96697.47;5035167;28;20568;-72
2022/12/28 10:07:58;;;;;;;4.03;2.20;;;;;;;6.83;100.00;96699.13;5035514;28;20673;-70
2022/12/28 10:10:26;;;;;;;2.73;1.60;;;;;;;6.81;100.00;96701.06;5035840;28;20493;-70
2022/12/28 10:12:54;;;;;;;3.50;1.50;;;;;;;6.89;100.00;96693.34;5035848;28;20205;-70
2022/12/28 10:15:24;;;;;;;1.43;1.33;;;;;;;6.99;100.00;96688.91;5035286;28;20212;-70
2022/12/28 10:17:51;;;;;;;2.13;1.30;;;;;;;6.96;100.00;96684.75;5035628;28;20700;-72
2022/12/28 10:20:22;;;;;;;3.17;1.93;;;;;;;7.23;100.00;96683.94;5035738;28;20225;-72
2022/12/28 10:22:55;;;;;;;2.63;1.83;;;;;;;7.31;100.00;96679.63;5036322;28;20497;-71
2022/12/28 10:25:24;;;;;;;3.13;1.73;;;;;;;7.17;100.00;96681.91;5035324;28;20374;-73
2022/12/28 10:27:51;;;;;;;3.13;1.57;;;;;;;7.08;100.00;96673.13;5035825;28;20614;-71
2022/12/28 10:30:20;;;;;;;3.30;1.70;;;;;;;7.13;100.00;96664.81;5035586;28;20233;-70
2022/12/28 10:32:53;;;;;;;3.20;1.70;;;;;;;7.16;100.00;96667.16;5035810;28;20672;-70
2022/12/28 10:35:24;;;;;;;2.40;1.83;;;;;;;7.23;100.00;96660.34;5035613;28;20220;-72
2022/12/28 10:37:59;;;;;;;3.17;1.87;;;;;;;7.35;99.50;96657.38;5035204;28;20251;-71
2022/12/28 10:40:28;;;;;;;2.60;1.80;;;;;;;7.36;100.00;96651.16;5035675;28;20232;-72
2022/12/28 10:42:56;;;;;;;4.23;1.80;;;;;;;7.29;99.44;96640.44;5036223;28;20209;-70
2022/12/28 10:45:27;;;;;;;5.47;1.90;;;;;;;7.36;99.66;96646.75;5034354;28;20481;-70
2022/12/28 10:47:55;;;;;;;4.43;1.50;;;;;;;7.39;99.58;96638.56;5035432;28;20204;-73
2022/12/28 10:50:49;;;;;;;2.87;1.37;;;;;;;7.57;97.89;96628.09;5035372;28;20229;-71
2022/12/28 10:53:20;;;;;;;2.50;1.43;;;;;;;7.62;96.89;96628.50;5035213;28;20208;-72
2022/12/28 10:55:46;;;;;;;4.40;1.50;;;;;;;7.56;96.86;96629.06;5035100;28;20363;-70
2022/12/28 10:58:16;;;;;;;3.10;1.43;;;;;;;7.79;95.29;96625.88;5035570;28;20209;-70
2022/12/28 11:00:43;;;;;;;1.80;1.00;;;;;;;7.64;94.93;96627.38;5038044;28;20716;-70
2022/12/28 11:03:18;;;;;;;1.30;1.13;;;;;;;7.93;94.18;96620.09;5039170;28;20205;-71
2022/12/28 11:05:44;;;;;;;3.90;1.43;;;;;;;7.90;93.52;96609.88;5038241;28;20681;-72
2022/12/28 11:08:13;;;;;;;3.43;1.80;;;;;;;7.92;93.10;96614.00;5038937;28;20208;-72
2022/12/28 11:10:41;;;;;;;5.97;1.60;;;;;;;7.91;92.47;96603.66;5038675;28;20309;-73
2022/12/28 11:13:19;;;;;;;2.67;1.50;;;;;;;8.13;91.67;96605.81;5039291;28;20213;-72
2022/12/28 11:15:46;;;;;;;3.53;1.30;;;;;;;8.10;91.79;96600.88;5038536;28;20211;-71
2022/12/28 11:18:15;;;;;;;1.63;1.43;;;;;;;8.23;91.23;96596.88;5038718;28;20209;-73
2022/12/28 11:20:45;;;;;;;2.33;1.53;;;;;;;8.23;89.78;96596.88;5038591;28;20243;-72
2022/12/28 11:23:17;;;;;;;1.77;1.30;;;;;;;8.44;88.82;96594.72;5038725;28;20209;-73
2022/12/28 11:25:46;;;;;;;2.37;0.90;;;;;;;8.31;88.15;96593.47;5038399;28;20571;-72
2022/12/28 11:28:16;;;;;;;3.07;1.27;;;;;;;8.54;88.92;96590.16;5038659;28;20577;-73
2022/12/28 11:30:43;;;;;;;3.10;1.47;;;;;;;8.62;87.38;96588.41;5038379;28;20224;-73
2022/12/28 11:33:25;;;;;;;2.40;1.23;;;;;;;8.84;86.91;96587.84;5038414;28;20212;-73
2022/12/28 11:35:54;;;;;;;3.00;0.90;;;;;;;8.67;86.16;96586.16;5037736;28;20205;-73
2022/12/28 11:38:37;;;;;;;2.93;1.50;;;;;;;8.93;86.15;96576.41;5038414;28;20225;-73
2022/12/28 11:41:06;;;;;;;2.87;1.43;;;;;;;8.81;85.40;96577.69;5039031;28;20237;-72
2022/12/28 11:43:50;;;;;;;5.67;1.93;;;;;;;8.94;86.56;96577.25;5037692;28;20575;-72
2022/12/28 11:46:40;;;;;;;6.87;2.73;;;;;;;8.96;85.80;96564.75;5037954;28;20209;-73
2022/12/28 11:49:34;;;;;;;5.83;2.50;;;;;;;9.09;84.83;96568.59;5039323;28;20256;-73
2022/12/28 11:52:43;;;;;;;8.27;1.90;;;;;;;8.87;84.52;96556.03;5037821;28;20674;-73
2022/12/28 11:55:55;;;;;;;2.93;1.43;;;;;;;8.99;83.92;96548.69;5037119;28;20767;-73
2022/12/28 11:58:44;;;;;;;21.37;5.97;;;;;;;8.96;83.85;96538.47;5038010;28;20232;-72
2022/12/28 12:01:11;;;;;;;12.50;3.07;;;;;;;8.93;84.13;96541.44;5038603;28;20482;-73
2022/12/28 12:04:15;;;;;;;7.67;2.70;;;;;;;9.15;83.45;96539.00;5037046;28;20212;-73
2022/12/28 12:07:27;;;;;;;5.50;2.10;;;;;;;9.10;83.61;96536.06;5037706;28;20611;-73
2022/12/28 12:10:14;;;;;;;6.90;1.80;;;;;;;9.07;82.49;96531.09;5037369;28;20307;-73
2022/12/28 12:12:48;;;;;;;1.87;0.93;;;;;;;8.95;81.80;96521.88;5036942;28;20204;-72